createdAt,value
2023-03-30T00:00:17.614Z,99.99
2023-03-30T00:01:17.567Z,99.99
2023-03-30T00:02:17.567Z,99.99
2023-03-30T00:03:17.769Z,99.99
2023-03-30T00:04:17.719Z,99.99
2023-03-30T00:05:17.668Z,99.99
2023-03-30T00:06:17.497Z,99.99
2023-03-30T00:07:17.502Z,99.99
2023-03-30T00:08:17.485Z,99.99
2023-03-30T00:09:17.492Z,99.99
2023-03-30T00:10:17.462Z,99.99
2023-03-30T00:11:17.474Z,99.99
2023-03-30T00:12:17.438Z,99.99
2023-03-30T00:13:17.438Z,99.99
2023-03-30T00:14:17.414Z,99.99
2023-03-30T00:15:17.425Z,99.99
2023-03-30T00:16:17.428Z,99.99
2023-03-30T00:17:17.412Z,99.99
2023-03-30T00:18:17.365Z,99.99
2023-03-30T00:19:17.365Z,99.99
2023-03-30T00:20:17.400Z,99.99
2023-03-30T00:21:17.341Z,99.99
2023-03-30T00:22:17.329Z,99.99
2023-03-30T00:23:17.316Z,99.99
2023-03-30T00:24:17.312Z,99.99
2023-03-30T00:25:17.295Z,99.99
2023-03-30T00:26:17.283Z,99.99
2023-03-30T00:27:17.288Z,99.99
2023-03-30T00:28:17.262Z,99.99
2023-03-30T00:29:17.251Z,99.99
2023-03-30T00:30:17.237Z,99.99
2023-03-30T00:31:17.272Z,99.99
2023-03-30T00:32:17.208Z,99.99
2023-03-30T00:33:17.196Z,99.99
2023-03-30T00:34:17.193Z,99.99
2023-03-30T00:35:17.208Z,99.99
2023-03-30T00:36:17.363Z,99.99
2023-03-30T00:37:17.152Z,99.99
2023-03-30T00:38:17.150Z,99.99
2023-03-30T00:39:17.137Z,99.99
2023-03-30T00:40:17.111Z,99.99
2023-03-30T00:41:17.153Z,99.99
2023-03-30T00:42:17.146Z,99.99
2023-03-30T00:43:17.087Z,99.99
2023-03-30T00:44:17.087Z,99.99
2023-03-30T00:45:17.060Z,99.99
2023-03-30T00:46:17.121Z,99.99
2023-03-30T00:47:17.064Z,99.99
2023-03-30T00:48:17.016Z,99.99
2023-03-30T00:49:17.012Z,99.99
2023-03-30T00:50:17.035Z,99.99
2023-03-30T00:51:16.987Z,99.99
2023-03-30T00:52:16.987Z,99.99
2023-03-30T00:53:16.984Z,99.99
2023-03-30T00:54:16.993Z,99.99
2023-03-30T00:55:16.959Z,99.99
2023-03-30T00:56:16.940Z,99.99
2023-03-30T00:57:17.019Z,99.99
2023-03-30T00:58:16.903Z,99.99
2023-03-30T00:59:16.921Z,99.99
2023-03-30T01:00:16.891Z,99.99
2023-03-30T01:01:16.925Z,99.99
2023-03-30T01:02:16.933Z,99.99
2023-03-30T01:03:16.940Z,99.99
2023-03-30T01:04:16.837Z,99.99
2023-03-30T01:05:16.833Z,99.99
2023-03-30T01:06:16.824Z,99.99
2023-03-30T01:07:16.815Z,99.99
2023-03-30T01:08:16.936Z,99.99
2023-03-30T01:09:16.809Z,99.99
2023-03-30T01:10:16.774Z,99.99
2023-03-30T01:11:16.777Z,99.99
2023-03-30T01:12:16.755Z,99.99
2023-03-30T01:13:16.744Z,99.99
2023-03-30T01:14:16.748Z,99.99
2023-03-30T01:15:16.733Z,99.99
2023-03-30T01:16:16.734Z,99.99
2023-03-30T01:17:16.710Z,99.99
2023-03-30T01:18:16.684Z,99.99
2023-03-30T01:19:16.671Z,99.99
2023-03-30T01:20:16.706Z,99.99
2023-03-30T01:21:16.663Z,99.99
2023-03-30T01:22:16.652Z,99.99
2023-03-30T01:23:16.629Z,99.99
2023-03-30T01:24:16.632Z,99.99
2023-03-30T01:25:16.609Z,99.99
2023-03-30T01:26:16.588Z,99.99
2023-03-30T01:27:16.641Z,99.99
2023-03-30T01:28:16.562Z,99.99
2023-03-30T01:29:16.570Z,99.99
2023-03-30T01:30:16.543Z,99.99
2023-03-30T01:31:16.568Z,99.99
2023-03-30T01:32:16.528Z,99.99
2023-03-30T01:33:16.513Z,99.99
2023-03-30T01:34:16.511Z,99.99
2023-03-30T01:35:16.573Z,99.99
2023-03-30T01:36:16.540Z,99.99
2023-03-30T01:37:16.509Z,99.99
2023-03-30T01:38:16.455Z,99.99
2023-03-30T01:39:16.468Z,99.99
2023-03-30T01:40:16.453Z,99.99
2023-03-30T01:41:16.434Z,99.99
2023-03-30T01:42:16.404Z,99.99
2023-03-30T01:43:16.413Z,99.99
2023-03-30T01:44:16.391Z,99.99
2023-03-30T01:45:16.382Z,99.99
2023-03-30T01:46:16.411Z,99.99
2023-03-30T01:47:16.424Z,99.99
2023-03-30T01:48:16.358Z,99.99
2023-03-30T01:49:16.345Z,99.99
2023-03-30T01:50:16.372Z,99.99
2023-03-30T01:51:16.305Z,99.99
2023-03-30T01:52:16.310Z,99.99
2023-03-30T01:53:16.323Z,99.99
2023-03-30T01:54:16.291Z,99.99
2023-03-30T01:55:16.322Z,99.99
2023-03-30T01:56:16.246Z,99.99
2023-03-30T01:57:16.268Z,99.99
2023-03-30T01:58:16.239Z,99.99
2023-03-30T01:59:16.243Z,99.99
2023-03-30T02:00:16.208Z,99.99
2023-03-30T02:01:16.190Z,99.99
2023-03-30T02:02:16.269Z,99.99
2023-03-30T02:03:16.265Z,99.99
2023-03-30T02:04:16.163Z,99.99
2023-03-30T02:05:16.159Z,99.99
2023-03-30T02:06:16.168Z,99.99
2023-03-30T02:07:16.134Z,99.99
2023-03-30T02:08:16.136Z,99.99
2023-03-30T02:09:16.199Z,99.99
2023-03-30T02:10:16.106Z,99.99
2023-03-30T02:11:16.077Z,99.99
2023-03-30T02:12:16.081Z,99.99
2023-03-30T02:13:16.091Z,99.99
2023-03-30T02:14:16.096Z,99.99
2023-03-30T02:15:16.041Z,99.99
2023-03-30T02:16:16.088Z,99.99
2023-03-30T02:17:16.023Z,99.99
2023-03-30T02:18:16.033Z,99.99
2023-03-30T02:19:15.997Z,99.99
2023-03-30T02:20:15.977Z,99.99
2023-03-30T02:21:15.960Z,99.99
2023-03-30T02:22:15.990Z,99.99
2023-03-30T02:23:15.967Z,99.99
2023-03-30T02:24:15.952Z,99.99
2023-03-30T02:25:15.958Z,99.99
2023-03-30T02:26:15.920Z,99.99
2023-03-30T02:27:15.904Z,99.99
2023-03-30T02:28:15.915Z,99.99
2023-03-30T02:29:15.867Z,99.99
2023-03-30T02:30:15.891Z,99.99
2023-03-30T02:31:15.897Z,99.99
2023-03-30T02:32:15.861Z,99.99
2023-03-30T02:33:15.891Z,99.99
2023-03-30T02:34:15.845Z,99.99
2023-03-30T02:35:15.866Z,99.99
2023-03-30T02:36:15.818Z,99.99
2023-03-30T02:37:15.789Z,99.99
2023-03-30T02:38:15.789Z,99.99
2023-03-30T02:39:15.801Z,99.99
2023-03-30T02:40:15.773Z,99.99
2023-03-30T02:41:15.793Z,99.99
2023-03-30T02:42:15.733Z,99.99
2023-03-30T02:43:15.738Z,99.99
2023-03-30T02:44:15.725Z,99.99
2023-03-30T02:45:15.708Z,99.99
2023-03-30T02:46:15.729Z,99.99
2023-03-30T02:47:15.685Z,99.99
2023-03-30T02:48:15.676Z,99.99
2023-03-30T02:49:15.660Z,99.99
2023-03-30T02:50:15.672Z,99.99
2023-03-30T02:51:15.624Z,99.99
2023-03-30T02:52:15.632Z,99.99
2023-03-30T02:53:15.616Z,99.99
2023-03-30T02:54:15.593Z,99.99
2023-03-30T02:55:15.610Z,99.99
2023-03-30T02:56:15.578Z,99.99
2023-03-30T02:57:15.604Z,99.99
2023-03-30T02:58:15.564Z,99.99
2023-03-30T02:59:15.545Z,99.99
2023-03-30T03:00:15.528Z,99.99
2023-03-30T03:01:15.525Z,99.99
2023-03-30T03:02:15.602Z,99.99
2023-03-30T03:03:15.629Z,99.99
2023-03-30T03:04:15.525Z,99.99
2023-03-30T03:05:15.487Z,99.99
2023-03-30T03:06:15.509Z,99.99
2023-03-30T03:07:15.445Z,99.99
2023-03-30T03:08:15.446Z,99.99
2023-03-30T03:09:15.451Z,99.99
2023-03-30T03:10:15.414Z,99.99
2023-03-30T03:11:15.417Z,99.99
2023-03-30T03:12:15.425Z,99.99
2023-03-30T03:13:15.382Z,99.99
2023-03-30T03:14:15.368Z,99.99
2023-03-30T03:15:15.365Z,99.99
2023-03-30T03:16:15.359Z,99.99
2023-03-30T03:17:15.451Z,99.99
2023-03-30T03:18:15.327Z,99.99
2023-03-30T03:19:15.325Z,99.99
2023-03-30T03:20:15.319Z,99.99
2023-03-30T03:21:15.285Z,99.99
2023-03-30T03:22:15.310Z,99.99
2023-03-30T03:23:15.276Z,99.99
2023-03-30T03:24:15.266Z,99.99
2023-03-30T03:25:15.245Z,99.99
2023-03-30T03:26:15.254Z,99.99
2023-03-30T03:27:15.246Z,99.99
2023-03-30T03:28:15.208Z,99.99
2023-03-30T03:29:15.218Z,99.99
2023-03-30T03:30:15.220Z,99.99
2023-03-30T03:31:15.291Z,99.99
2023-03-30T03:32:15.175Z,99.99
2023-03-30T03:33:15.174Z,99.99
2023-03-30T03:34:15.133Z,99.99
2023-03-30T03:35:15.151Z,99.99
2023-03-30T03:36:15.183Z,99.99
2023-03-30T03:37:15.152Z,99.99
2023-03-30T03:38:15.099Z,99.99
2023-03-30T03:39:15.089Z,99.99
2023-03-30T03:40:15.094Z,99.99
2023-03-30T03:41:15.065Z,99.99
2023-03-30T03:42:15.047Z,99.99
2023-03-30T03:43:15.050Z,99.99
2023-03-30T03:44:15.049Z,99.99
2023-03-30T03:45:15.028Z,99.99
2023-03-30T03:46:15.100Z,99.99
2023-03-30T03:47:16.553Z,99.99
2023-03-30T03:48:14.986Z,99.99
2023-03-30T03:49:14.979Z,99.99
2023-03-30T03:50:15.010Z,99.99
2023-03-30T03:51:14.944Z,99.99
2023-03-30T03:52:14.950Z,99.99
2023-03-30T03:53:14.937Z,99.99
2023-03-30T03:54:14.922Z,99.99
2023-03-30T03:55:14.899Z,99.99
2023-03-30T03:56:14.914Z,99.99
2023-03-30T03:57:14.980Z,99.99
2023-03-30T03:58:14.879Z,99.99
2023-03-30T03:59:14.857Z,99.99
2023-03-30T04:00:14.909Z,99.99
2023-03-30T04:01:14.886Z,99.99
2023-03-30T04:02:14.930Z,99.99
2023-03-30T04:03:14.840Z,99.99
2023-03-30T04:04:14.830Z,99.99
2023-03-30T04:05:14.802Z,99.99
2023-03-30T04:06:14.773Z,99.99
2023-03-30T04:07:14.785Z,99.99
2023-03-30T04:08:14.758Z,99.99
2023-03-30T04:09:14.739Z,99.99
2023-03-30T04:10:14.737Z,99.99
2023-03-30T04:11:14.713Z,99.99
2023-03-30T04:12:14.724Z,99.99
2023-03-30T04:13:14.709Z,99.99
2023-03-30T04:14:14.690Z,99.99
2023-03-30T04:15:14.668Z,99.99
2023-03-30T04:16:14.703Z,99.99
2023-03-30T04:17:14.666Z,99.99
2023-03-30T04:18:14.691Z,99.99
2023-03-30T04:19:14.652Z,99.99
2023-03-30T04:20:14.657Z,99.99
2023-03-30T04:21:14.609Z,99.99
2023-03-30T04:22:14.627Z,99.99
2023-03-30T04:23:14.574Z,99.99
2023-03-30T04:24:14.574Z,99.99
2023-03-30T04:25:14.572Z,99.99
2023-03-30T04:26:14.560Z,99.99
2023-03-30T04:27:14.550Z,99.99
2023-03-30T04:28:14.541Z,99.99
2023-03-30T04:29:14.507Z,99.99
2023-03-30T04:30:14.527Z,99.99
2023-03-30T04:31:14.569Z,99.99
2023-03-30T04:32:14.570Z,99.99
2023-03-30T04:33:14.473Z,99.99
2023-03-30T04:34:14.462Z,99.99
2023-03-30T04:35:14.445Z,99.99
2023-03-30T04:36:14.490Z,99.99
2023-03-30T04:37:14.442Z,99.99
2023-03-30T04:38:14.460Z,99.99
2023-03-30T04:39:14.451Z,99.99
2023-03-30T04:40:14.411Z,99.99
2023-03-30T04:41:14.396Z,99.99
2023-03-30T04:42:14.459Z,99.99
2023-03-30T04:43:14.362Z,99.99
2023-03-30T04:44:14.352Z,99.99
2023-03-30T04:45:14.364Z,99.99
2023-03-30T04:46:14.345Z,99.99
2023-03-30T04:47:14.326Z,99.99
2023-03-30T04:48:14.381Z,99.99
2023-03-30T04:49:14.287Z,99.99
2023-03-30T04:50:14.305Z,99.99
2023-03-30T04:51:14.276Z,99.99
2023-03-30T04:52:14.274Z,99.99
2023-03-30T04:53:14.311Z,99.99
2023-03-30T04:54:14.272Z,99.99
2023-03-30T04:55:14.251Z,99.99
2023-03-30T04:56:14.241Z,99.99
2023-03-30T04:57:14.318Z,99.99
2023-03-30T04:58:14.202Z,99.99
2023-03-30T04:59:14.182Z,99.99
2023-03-30T05:00:14.245Z,99.99
2023-03-30T05:01:14.189Z,99.99
2023-03-30T05:02:14.177Z,99.99
2023-03-30T05:03:14.318Z,99.99
2023-03-30T05:04:14.125Z,99.99
2023-03-30T05:05:14.108Z,99.99
2023-03-30T05:06:14.128Z,99.99
2023-03-30T05:07:14.088Z,99.99
2023-03-30T05:08:14.077Z,99.99
2023-03-30T05:09:14.069Z,99.99
2023-03-30T05:10:14.053Z,99.99
2023-03-30T05:11:14.046Z,99.99
2023-03-30T05:12:14.060Z,99.99
2023-03-30T05:13:14.010Z,99.99
2023-03-30T05:14:14.014Z,99.99
2023-03-30T05:15:14.010Z,99.99
2023-03-30T05:16:14.019Z,99.99
2023-03-30T05:17:14.087Z,99.99
2023-03-30T05:18:14.031Z,99.99
2023-03-30T05:19:13.952Z,99.99
2023-03-30T05:20:13.975Z,99.99
2023-03-30T05:21:13.926Z,99.99
2023-03-30T05:22:13.940Z,99.99
2023-03-30T05:23:13.912Z,99.99
2023-03-30T05:24:13.901Z,99.99
2023-03-30T05:25:13.889Z,99.99
2023-03-30T05:26:13.908Z,99.99
2023-03-30T05:27:13.865Z,99.99
2023-03-30T05:28:13.875Z,99.99
2023-03-30T05:29:13.879Z,99.99
2023-03-30T05:30:13.843Z,99.99
2023-03-30T05:31:13.852Z,99.99
2023-03-30T05:32:13.823Z,99.99
2023-03-30T05:33:13.817Z,99.99
2023-03-30T05:34:13.777Z,99.99
2023-03-30T05:35:13.786Z,99.99
2023-03-30T05:36:13.792Z,99.99
2023-03-30T05:37:13.736Z,99.99
2023-03-30T05:38:13.830Z,99.99
2023-03-30T05:39:13.745Z,99.99
2023-03-30T05:40:13.713Z,99.99
2023-03-30T05:41:13.699Z,99.99
2023-03-30T05:42:13.838Z,99.99
2023-03-30T05:43:13.693Z,99.99
2023-03-30T05:44:13.676Z,99.99
2023-03-30T05:45:13.649Z,99.99
2023-03-30T05:46:13.801Z,99.99
2023-03-30T05:47:13.658Z,99.99
2023-03-30T05:48:13.611Z,99.99
2023-03-30T05:49:13.615Z,99.99
2023-03-30T05:50:13.609Z,99.99
2023-03-30T05:51:13.577Z,99.99
2023-03-30T05:52:13.596Z,99.99
2023-03-30T05:53:13.575Z,99.99
2023-03-30T05:54:13.544Z,99.99
2023-03-30T05:55:13.552Z,99.99
2023-03-30T05:56:13.538Z,99.99
2023-03-30T05:57:13.599Z,99.99
2023-03-30T05:58:13.522Z,99.99
2023-03-30T05:59:13.488Z,99.99
2023-03-30T06:00:13.499Z,99.99
2023-03-30T06:01:13.486Z,99.99
2023-03-30T06:02:13.482Z,99.99
2023-03-30T06:03:13.546Z,99.99
2023-03-30T06:04:13.464Z,99.99
2023-03-30T06:05:13.440Z,99.99
2023-03-30T06:06:13.416Z,99.99
2023-03-30T06:07:13.409Z,99.99
2023-03-30T06:08:13.401Z,99.99
2023-03-30T06:09:13.399Z,99.99
2023-03-30T06:10:13.366Z,99.99
2023-03-30T06:11:13.373Z,99.99
2023-03-30T06:12:13.346Z,99.99
2023-03-30T06:13:13.361Z,99.99
2023-03-30T06:14:13.347Z,99.99
2023-03-30T06:15:13.326Z,99.99
2023-03-30T06:16:13.385Z,99.99
2023-03-30T06:17:13.309Z,99.99
2023-03-30T06:18:13.386Z,99.99
2023-03-30T06:19:13.268Z,99.99
2023-03-30T06:20:13.256Z,99.99
2023-03-30T06:21:13.264Z,99.99
2023-03-30T06:22:13.228Z,99.99
2023-03-30T06:23:13.242Z,99.99
2023-03-30T06:24:13.214Z,99.99
2023-03-30T06:25:13.229Z,99.99
2023-03-30T06:26:13.195Z,99.99
2023-03-30T06:27:13.172Z,99.99
2023-03-30T06:28:13.180Z,99.99
2023-03-30T06:29:13.158Z,99.99
2023-03-30T06:30:13.342Z,99.99
2023-03-30T06:31:13.165Z,99.99
2023-03-30T06:32:13.183Z,99.99
2023-03-30T06:33:13.146Z,99.99
2023-03-30T06:34:13.133Z,99.99
2023-03-30T06:35:13.076Z,99.99
2023-03-30T06:36:13.207Z,99.99
2023-03-30T06:37:13.083Z,99.99
2023-03-30T06:38:13.041Z,99.99
2023-03-30T06:39:13.035Z,99.99
2023-03-30T06:40:13.049Z,99.99
2023-03-30T06:41:13.013Z,99.99
2023-03-30T06:42:13.003Z,99.99
2023-03-30T06:43:13.001Z,99.99
2023-03-30T06:44:12.995Z,99.99
2023-03-30T06:45:12.985Z,99.99
2023-03-30T06:46:12.995Z,99.99
2023-03-30T06:47:12.948Z,99.99
2023-03-30T06:48:12.935Z,99.99
2023-03-30T06:49:12.983Z,99.99
2023-03-30T06:50:12.921Z,99.99
2023-03-30T06:51:12.908Z,99.99
2023-03-30T06:52:12.899Z,99.99
2023-03-30T06:53:12.891Z,99.99
2023-03-30T06:54:12.880Z,99.99
2023-03-30T06:55:12.869Z,99.99
2023-03-30T06:56:12.858Z,99.99
2023-03-30T06:57:12.935Z,99.99
2023-03-30T06:58:12.840Z,99.99
2023-03-30T06:59:12.813Z,99.99
2023-03-30T07:00:12.801Z,99.99
2023-03-30T07:01:12.887Z,99.99
2023-03-30T07:02:12.784Z,99.99
2023-03-30T07:03:12.818Z,99.99
2023-03-30T07:04:12.780Z,99.99
2023-03-30T07:05:12.769Z,99.99
2023-03-30T07:06:12.727Z,99.99
2023-03-30T07:07:12.717Z,99.99
2023-03-30T07:08:12.766Z,99.99
2023-03-30T07:09:12.720Z,99.99
2023-03-30T07:10:12.693Z,99.99
2023-03-30T07:11:12.691Z,99.99
2023-03-30T07:12:12.700Z,99.99
2023-03-30T07:13:12.658Z,99.99
2023-03-30T07:14:12.653Z,99.99
2023-03-30T07:15:12.987Z,99.99
2023-03-30T07:16:12.683Z,99.99
2023-03-30T07:17:12.672Z,99.99
2023-03-30T07:18:12.683Z,99.99
2023-03-30T07:19:12.618Z,99.99
2023-03-30T07:20:12.584Z,99.99
2023-03-30T07:21:12.581Z,99.99
2023-03-30T07:22:12.570Z,99.99
2023-03-30T07:23:12.551Z,99.99
2023-03-30T07:24:12.902Z,99.99
2023-03-30T07:25:12.524Z,99.99
2023-03-30T07:26:12.523Z,99.99
2023-03-30T07:27:12.578Z,99.99
2023-03-30T07:28:12.476Z,99.99
2023-03-30T07:29:12.520Z,99.99
2023-03-30T07:30:21.063Z,99.99
2023-03-30T07:31:12.490Z,99.99
2023-03-30T07:32:12.447Z,99.99
2023-03-30T07:33:12.441Z,99.99
2023-03-30T07:34:12.420Z,99.99
2023-03-30T07:35:12.417Z,99.99
2023-03-30T07:36:12.482Z,99.99
2023-03-30T07:37:12.402Z,99.99
2023-03-30T07:38:12.373Z,99.99
2023-03-30T07:39:12.385Z,99.99
2023-03-30T07:40:12.439Z,99.99
2023-03-30T07:41:12.376Z,99.99
2023-03-30T07:42:12.318Z,99.99
2023-03-30T07:43:12.344Z,99.99
2023-03-30T07:44:12.293Z,99.99
2023-03-30T07:45:14.853Z,99.99
2023-03-30T07:46:12.417Z,99.99
2023-03-30T07:47:12.282Z,99.99
2023-03-30T07:48:12.338Z,99.99
2023-03-30T07:49:12.277Z,99.99
2023-03-30T07:50:12.224Z,99.99
2023-03-30T07:51:12.250Z,99.99
2023-03-30T07:52:12.204Z,99.99
2023-03-30T07:53:12.207Z,99.99
2023-03-30T07:54:12.213Z,99.99
2023-03-30T07:55:12.193Z,99.99
2023-03-30T07:56:12.179Z,99.99
2023-03-30T07:57:12.250Z,99.99
2023-03-30T07:58:12.151Z,99.99
2023-03-30T07:59:12.157Z,99.99
2023-03-30T08:00:12.136Z,99.99
2023-03-30T08:01:12.119Z,99.99
2023-03-30T08:02:12.141Z,99.99
2023-03-30T08:03:12.331Z,99.99
2023-03-30T08:04:12.211Z,99.99
2023-03-30T08:05:12.166Z,99.99
2023-03-30T08:06:12.057Z,99.99
2023-03-30T08:07:12.056Z,99.99
2023-03-30T08:08:12.067Z,99.99
2023-03-30T08:09:12.017Z,99.99
2023-03-30T08:10:12.022Z,99.99
2023-03-30T08:11:12.010Z,99.99
2023-03-30T08:12:11.979Z,99.99
2023-03-30T08:13:12.005Z,99.99
2023-03-30T08:14:11.955Z,99.99
2023-03-30T08:15:11.964Z,99.99
2023-03-30T08:16:12.037Z,99.99
2023-03-30T08:17:11.943Z,99.99
2023-03-30T08:18:11.966Z,99.99
2023-03-30T08:19:11.968Z,99.99
2023-03-30T08:20:11.929Z,99.99
2023-03-30T08:21:11.896Z,99.99
2023-03-30T08:22:11.872Z,99.99
2023-03-30T08:23:11.889Z,99.99
2023-03-30T08:24:11.885Z,99.99
2023-03-30T08:25:11.847Z,99.99
2023-03-30T08:26:11.836Z,99.99
2023-03-30T08:27:11.894Z,99.99
2023-03-30T08:28:11.794Z,99.99
2023-03-30T08:29:11.804Z,99.99
2023-03-30T08:30:11.789Z,99.99
2023-03-30T08:31:11.804Z,99.99
2023-03-30T08:32:11.755Z,99.99
2023-03-30T08:33:11.766Z,99.99
2023-03-30T08:34:11.749Z,99.99
2023-03-30T08:35:11.737Z,99.99
2023-03-30T08:36:11.723Z,99.99
2023-03-30T08:37:11.715Z,99.99
2023-03-30T08:38:11.700Z,99.99
2023-03-30T08:39:11.704Z,99.99
2023-03-30T08:40:11.661Z,99.99
2023-03-30T08:41:11.671Z,99.99
2023-03-30T08:42:11.675Z,99.99
2023-03-30T08:43:11.692Z,99.99
2023-03-30T08:44:11.620Z,99.99
2023-03-30T08:45:11.638Z,99.99
2023-03-30T08:46:11.668Z,99.99
2023-03-30T08:47:11.585Z,99.99
2023-03-30T08:48:11.620Z,99.99
2023-03-30T08:49:11.581Z,99.99
2023-03-30T08:50:11.621Z,99.99
2023-03-30T08:51:11.559Z,99.99
2023-03-30T08:52:11.578Z,99.99
2023-03-30T08:53:11.551Z,99.99
2023-03-30T08:54:11.504Z,99.99
2023-03-30T08:55:11.505Z,99.99
2023-03-30T08:56:11.516Z,99.99
2023-03-30T08:57:11.637Z,99.99
2023-03-30T08:58:11.494Z,99.99
2023-03-30T08:59:11.464Z,99.99
2023-03-30T09:00:11.452Z,99.99
2023-03-30T09:01:11.456Z,99.99
2023-03-30T09:02:11.503Z,99.99
2023-03-30T09:03:11.514Z,99.99
2023-03-30T09:04:11.420Z,99.99
2023-03-30T09:05:11.413Z,99.99
2023-03-30T09:06:11.383Z,99.99
2023-03-30T09:07:11.383Z,99.99
2023-03-30T09:08:11.362Z,99.99
2023-03-30T09:09:11.342Z,99.99
2023-03-30T09:10:11.343Z,99.99
2023-03-30T09:11:11.356Z,99.99
2023-03-30T09:12:11.410Z,99.99
2023-03-30T09:13:11.301Z,99.99
2023-03-30T09:14:11.322Z,99.99
2023-03-30T09:15:11.327Z,99.99
2023-03-30T09:16:11.296Z,99.99
2023-03-30T09:17:11.273Z,99.99
2023-03-30T09:18:11.286Z,99.99
2023-03-30T09:19:11.262Z,99.99
2023-03-30T09:20:11.226Z,99.99
2023-03-30T09:21:11.265Z,99.99
2023-03-30T09:22:11.360Z,99.99
2023-03-30T09:23:11.197Z,99.99
2023-03-30T09:24:11.165Z,99.99
2023-03-30T09:25:11.179Z,99.99
2023-03-30T09:26:11.179Z,99.99
2023-03-30T09:27:11.156Z,99.99
2023-03-30T09:28:11.122Z,99.99
2023-03-30T09:29:11.132Z,99.99
2023-03-30T09:30:11.152Z,99.99
2023-03-30T09:31:11.150Z,99.99
2023-03-30T09:32:11.277Z,99.99
2023-03-30T09:33:11.163Z,99.99
2023-03-30T09:34:13.648Z,99.99
2023-03-30T09:35:11.058Z,99.99
2023-03-30T09:36:11.098Z,99.99
2023-03-30T09:37:11.031Z,99.99
2023-03-30T09:38:11.009Z,99.99
2023-03-30T09:39:11.148Z,99.99
2023-03-30T09:40:11.032Z,99.99
2023-03-30T09:41:10.997Z,99.99
2023-03-30T09:42:10.999Z,99.99
2023-03-30T09:43:10.951Z,99.99
2023-03-30T09:44:11.020Z,99.99
2023-03-30T09:45:10.949Z,99.99
2023-03-30T09:46:10.946Z,99.99
2023-03-30T09:47:10.922Z,99.99
2023-03-30T09:48:10.957Z,99.99
2023-03-30T09:49:10.885Z,99.99
2023-03-30T09:50:10.895Z,99.99
2023-03-30T09:51:10.881Z,99.99
2023-03-30T09:52:10.871Z,99.99
2023-03-30T09:53:10.884Z,99.99
2023-03-30T09:54:10.833Z,99.99
2023-03-30T09:55:10.848Z,99.99
2023-03-30T09:56:10.824Z,99.99
2023-03-30T09:57:10.835Z,99.99
2023-03-30T09:58:10.801Z,99.99
2023-03-30T09:59:10.786Z,99.99
2023-03-30T10:00:10.753Z,99.99
2023-03-30T10:01:10.800Z,99.99
2023-03-30T10:02:10.839Z,99.99
2023-03-30T10:03:10.875Z,99.99
2023-03-30T10:04:11.029Z,99.99
2023-03-30T10:05:10.738Z,99.99
2023-03-30T10:06:10.687Z,99.99
2023-03-30T10:08:10.677Z,99.99
2023-03-30T10:09:10.660Z,99.99
2023-03-30T10:10:10.655Z,99.99
2023-03-30T10:11:10.637Z,99.99
2023-03-30T10:12:10.647Z,99.99
2023-03-30T10:13:10.630Z,99.99
2023-03-30T10:14:10.610Z,99.99
2023-03-30T10:15:10.614Z,99.99
2023-03-30T10:16:10.612Z,99.99
2023-03-30T10:17:10.583Z,99.99
2023-03-30T10:18:10.594Z,99.99
2023-03-30T10:19:10.550Z,99.99
2023-03-30T10:20:13.877Z,99.99
2023-03-30T10:21:10.541Z,99.99
2023-03-30T10:22:10.520Z,99.99
2023-03-30T10:23:10.544Z,99.99
2023-03-30T10:24:10.497Z,99.99
2023-03-30T10:25:10.529Z,99.99
2023-03-30T10:26:10.468Z,99.99
2023-03-30T10:27:10.461Z,99.99
2023-03-30T10:28:10.448Z,99.99
2023-03-30T10:29:10.435Z,99.99
2023-03-30T10:30:10.436Z,99.99
2023-03-30T10:31:10.437Z,99.99
2023-03-30T10:32:10.426Z,99.99
2023-03-30T10:33:10.412Z,99.99
2023-03-30T10:34:10.389Z,99.99
2023-03-30T10:35:10.414Z,99.99
2023-03-30T10:36:10.413Z,99.99
2023-03-30T10:37:10.353Z,99.99
2023-03-30T10:38:10.351Z,99.99
2023-03-30T10:39:10.362Z,99.99
2023-03-30T10:40:10.337Z,99.99
2023-03-30T10:41:10.300Z,99.99
2023-03-30T10:42:10.300Z,99.99
2023-03-30T10:43:10.275Z,99.99
2023-03-30T10:44:10.283Z,99.99
2023-03-30T10:45:10.262Z,99.99
2023-03-30T10:46:18.812Z,99.99
2023-03-30T10:47:10.273Z,99.99
2023-03-30T10:48:10.268Z,99.99
2023-03-30T10:49:10.211Z,99.99
2023-03-30T10:50:10.212Z,99.99
2023-03-30T10:51:10.207Z,98.65
2023-03-30T10:52:10.246Z,99.56
2023-03-30T10:53:10.165Z,99.26
2023-03-30T10:54:10.171Z,99.31
2023-03-30T10:55:10.181Z,98.95
2023-03-30T10:56:10.139Z,98.95
2023-03-30T10:57:10.175Z,99.99
2023-03-30T10:58:10.130Z,99.99
2023-03-30T10:59:10.108Z,99.99
2023-03-30T11:00:10.096Z,99.99
2023-03-30T11:01:10.179Z,99.99
2023-03-30T11:02:10.083Z,98.95
2023-03-30T11:03:10.123Z,98.95
2023-03-30T11:04:22.434Z,98.03
2023-03-30T11:05:10.040Z,96.71
2023-03-30T11:06:10.024Z,97.42
2023-03-30T11:07:10.019Z,99.36
2023-03-30T11:08:10.008Z,98.24
2023-03-30T11:09:09.986Z,98.75
2023-03-30T11:10:09.979Z,97.42
2023-03-30T11:11:09.977Z,99.36
2023-03-30T11:12:09.975Z,99.99
2023-03-30T11:13:09.950Z,99.51
2023-03-30T11:14:09.947Z,99.61
2023-03-30T11:15:09.905Z,99.99
2023-03-30T11:16:09.943Z,99.30
2023-03-30T11:17:09.902Z,99.10
2023-03-30T11:18:10.525Z,98.59
2023-03-30T11:19:09.916Z,99.45
2023-03-30T11:20:09.945Z,99.86
2023-03-30T11:21:09.871Z,99.99
2023-03-30T11:22:09.836Z,99.50
2023-03-30T11:23:09.837Z,99.99
2023-03-30T11:24:09.852Z,99.99
2023-03-30T11:25:09.794Z,99.99
2023-03-30T11:26:09.816Z,99.99
2023-03-30T11:27:09.798Z,99.99
2023-03-30T11:28:09.784Z,99.99
2023-03-30T11:29:09.886Z,99.99
2023-03-30T11:30:09.773Z,99.99
2023-03-30T11:31:09.736Z,99.99
2023-03-30T11:32:09.808Z,99.99
2023-03-30T11:33:09.761Z,99.99
2023-03-30T11:34:09.727Z,99.99
2023-03-30T11:35:09.705Z,99.99
2023-03-30T11:36:09.699Z,99.99
2023-03-30T11:37:09.686Z,99.99
2023-03-30T11:38:09.690Z,99.99
2023-03-30T11:39:15.917Z,99.99
2023-03-30T11:40:09.639Z,99.99
2023-03-30T11:41:09.610Z,99.99
2023-03-30T11:42:09.613Z,99.99
2023-03-30T11:43:09.638Z,99.99
2023-03-30T11:44:09.661Z,99.99
2023-03-30T11:45:09.597Z,99.99
2023-03-30T11:46:09.898Z,99.75
2023-03-30T11:47:09.552Z,99.54
2023-03-30T11:48:09.559Z,99.85
2023-03-30T11:49:09.544Z,99.44
2023-03-30T11:50:09.561Z,99.44
2023-03-30T11:51:09.520Z,99.99
2023-03-30T11:52:09.497Z,99.34
2023-03-30T11:53:09.616Z,99.85
2023-03-30T11:54:09.472Z,99.95
2023-03-30T11:55:09.469Z,99.65
2023-03-30T11:56:09.466Z,99.04
2023-03-30T11:57:09.503Z,99.85
2023-03-30T11:58:09.475Z,99.34
2023-03-30T11:59:09.410Z,99.99
2023-03-30T12:00:09.454Z,99.44
2023-03-30T12:01:09.405Z,99.54
2023-03-30T12:02:09.405Z,98.83
2023-03-30T12:03:09.578Z,99.54
2023-03-30T12:04:09.486Z,99.44
2023-03-30T12:05:09.432Z,99.99
2023-03-30T12:06:09.348Z,99.54
2023-03-30T12:07:09.329Z,99.91
2023-03-30T12:08:09.324Z,99.99
2023-03-30T12:09:09.304Z,99.29
2023-03-30T12:10:09.303Z,99.09
2023-03-30T12:11:09.295Z,99.91
2023-03-30T12:12:09.280Z,99.55
2023-03-30T12:13:09.278Z,98.43
2023-03-30T12:14:09.272Z,97.98
2023-03-30T12:15:09.238Z,96.30
2023-03-30T12:16:09.353Z,97.02
2023-03-30T12:17:09.224Z,95.49
2023-03-30T12:18:09.297Z,96.46
2023-03-30T12:19:09.239Z,96.97
2023-03-30T12:20:09.196Z,97.89
2023-03-30T12:21:09.177Z,96.56
2023-03-30T12:22:09.165Z,97.07
2023-03-30T12:23:09.148Z,97.48
2023-03-30T12:24:09.148Z,96.77
2023-03-30T12:25:09.114Z,95.24
2023-03-30T12:26:09.121Z,97.99
2023-03-30T12:27:11.067Z,95.30
2023-03-30T12:28:09.097Z,92.45
2023-03-30T12:30:09.066Z,92.45
2023-03-30T12:31:09.068Z,94.69
2023-03-30T12:32:09.069Z,91.64
2023-03-30T12:33:09.085Z,92.86
2023-03-30T12:34:09.040Z,91.13
2023-03-30T12:35:09.037Z,92.45
2023-03-30T12:36:09.138Z,93.26
2023-03-30T12:37:08.993Z,92.14
2023-03-30T12:38:08.997Z,91.69
2023-03-30T12:39:08.971Z,91.69
2023-03-30T12:40:08.954Z,92.87
2023-03-30T12:41:08.935Z,90.23
2023-03-30T12:42:08.930Z,91.86
2023-03-30T12:43:08.913Z,91.05
2023-03-30T12:44:08.928Z,92.12
2023-03-30T12:45:08.900Z,93.44
2023-03-30T12:46:09.300Z,90.05
2023-03-30T12:47:10.218Z,89.80
2023-03-30T12:48:08.918Z,87.37
2023-03-30T12:49:08.842Z,90.97
2023-03-30T12:50:08.897Z,90.67
2023-03-30T12:51:08.854Z,83.06
2023-03-30T12:52:08.818Z,83.43
2023-03-30T12:53:08.815Z,83.63
2023-03-30T12:54:08.848Z,82.82